Time;durP1;ratioP1;P1;durP2;ratioP2;P2;SDS_P1;SDS_P2;PMS_P1;PMS_P2;Temp;Humidity;BMP_temperature;BMP_pressure;BME280_temperature;BME280_humidity;BME280_pressure;Samples;Min_cycle;Max_cycle;Signal;HPM_P1;HPM_P2
2022/06/20 00:02:24;;;;;;;1999.90;999.90;;;;;;;25.10;100.00;94543.44;5055206;28;20190;-62
2022/06/20 00:04:52;;;;;;;1999.90;999.90;;;;;;;25.08;100.00;94546.75;5071641;28;20190;-62
2022/06/20 00:07:18;;;;;;;1999.90;999.90;;;;;;;25.01;100.00;94540.94;5071059;28;20281;-65
2022/06/20 00:09:47;;;;;;;1999.90;999.90;;;;;;;24.95;100.00;94549.34;5071410;28;20208;-64
2022/06/20 00:12:23;;;;;;;1999.90;999.90;;;;;;;24.92;100.00;94544.81;5055138;28;20174;-65
2022/06/20 00:14:53;;;;;;;1999.90;999.90;;;;;;;24.99;100.00;94537.91;5055161;28;20189;-67
2022/06/20 00:17:18;;;;;;;1999.90;999.90;;;;;;;25.01;100.00;94546.53;5071002;28;20178;-67
2022/06/20 00:19:44;;;;;;;1999.90;999.90;;;;;;;25.00;100.00;94533.84;5071468;28;20182;-67
2022/06/20 00:22:10;;;;;;;1999.90;999.90;;;;;;;24.95;100.00;94526.25;5071050;28;20334;-67
2022/06/20 00:24:35;;;;;;;1999.90;999.90;;;;;;;24.88;100.00;94521.97;5071225;28;20181;-61
2022/06/20 00:27:06;;;;;;;1999.90;999.90;;;;;;;24.83;100.00;94513.63;5070939;28;20320;-60
2022/06/20 00:29:35;;;;;;;1999.90;999.90;;;;;;;24.80;100.00;94514.69;5071456;28;20305;-60
2022/06/20 00:32:00;;;;;;;1999.90;999.90;;;;;;;24.77;100.00;94505.28;5054636;28;20307;-61
2022/06/20 00:34:26;;;;;;;1999.90;999.90;;;;;;;24.72;100.00;94510.88;5071249;28;20197;-60
2022/06/20 00:36:51;;;;;;;1999.90;999.90;;;;;;;24.61;100.00;94508.13;5053882;28;20240;-60
2022/06/20 00:39:20;;;;;;;1999.90;999.90;;;;;;;24.60;100.00;94501.03;5055107;28;20205;-61
2022/06/20 00:41:47;;;;;;;1999.90;999.90;;;;;;;24.55;100.00;94504.63;5071110;28;20221;-58
2022/06/20 00:44:19;;;;;;;1999.90;999.90;;;;;;;24.50;100.00;94502.59;5070743;28;20193;-61
2022/06/20 00:46:51;;;;;;;1999.90;999.90;;;;;;;24.43;100.00;94494.75;5054124;28;20198;-61
2022/06/20 00:49:31;;;;;;;1999.90;999.90;;;;;;;24.37;100.00;94494.03;5071160;28;20256;-61
2022/06/20 00:52:17;;;;;;;1999.90;999.90;;;;;;;24.32;100.00;94483.66;5053907;28;20185;-61
2022/06/20 00:54:55;;;;;;;1999.90;999.90;;;;;;;24.30;100.00;94486.94;5070986;28;20186;-60
2022/06/20 00:57:27;;;;;;;1999.90;999.90;;;;;;;24.28;100.00;94488.75;5070529;28;20265;-60
2022/06/20 01:00:23;;;;;;;1999.90;999.90;;;;;;;24.22;100.00;94477.59;5053668;28;20194;-61
2022/06/20 01:02:53;;;;;;;1999.90;999.90;;;;;;;24.14;100.00;94473.06;5050677;28;20221;-58
2022/06/20 01:05:22;;;;;;;1999.90;999.90;;;;;;;24.08;100.00;94467.50;5070997;28;20209;-61
2022/06/20 01:08:07;;;;;;;1999.90;999.90;;;;;;;24.06;100.00;94458.91;5070420;28;20267;-60
2022/06/20 01:10:40;;;;;;;1999.90;999.90;;;;;;;24.01;100.00;94473.66;5070621;28;20208;-61
2022/06/20 01:13:10;;;;;;;1999.90;999.90;;;;;;;23.98;100.00;94473.91;5070712;28;20189;-60
2022/06/20 01:15:39;;;;;;;1999.90;999.90;;;;;;;23.96;100.00;94473.66;5070336;28;20189;-61
2022/06/20 01:18:10;;;;;;;1999.90;999.90;;;;;;;23.97;100.00;94466.81;5070402;28;20192;-61
2022/06/20 01:20:37;;;;;;;1999.90;999.90;;;;;;;23.94;100.00;94467.81;5070422;28;20240;-60
2022/06/20 01:23:20;;;;;;;1999.90;999.90;;;;;;;23.91;100.00;94468.81;5070346;28;20219;-61
2022/06/20 01:25:46;;;;;;;1999.90;999.90;;;;;;;23.87;100.00;94462.75;5070618;28;20189;-61
2022/06/20 01:28:29;;;;;;;1999.90;999.90;;;;;;;23.85;100.00;94474.41;5070439;28;20209;-61
2022/06/20 01:30:56;;;;;;;1999.90;999.90;;;;;;;23.84;100.00;94472.13;5053591;28;20193;-62
2022/06/20 01:33:22;;;;;;;1999.90;999.90;;;;;;;23.83;100.00;94459.47;5070586;28;20285;-61
2022/06/20 01:38:33;;;;;;;1999.90;999.90;;;;;;;23.81;100.00;94464.78;5054388;28;20217;-61
2022/06/20 01:43:46;;;;;;;1999.90;999.90;;;;;;;23.76;100.00;94460.75;5054829;28;20192;-61
2022/06/20 01:46:13;;;;;;;1999.90;999.90;;;;;;;23.74;100.00;94448.59;5053135;28;20185;-61
2022/06/20 01:48:42;;;;;;;1999.90;999.90;;;;;;;23.68;100.00;94450.63;5053904;28;20201;-61
2022/06/20 01:51:19;;;;;;;1999.90;999.90;;;;;;;23.63;100.00;94443.06;5069788;28;20235;-61
2022/06/20 01:53:47;;;;;;;1999.90;999.90;;;;;;;23.60;100.00;94455.97;5070348;28;20235;-61
2022/06/20 01:56:13;;;;;;;1999.90;999.90;;;;;;;23.62;100.00;94447.88;5069785;28;20201;-58
2022/06/20 01:58:42;;;;;;;1999.90;999.90;;;;;;;23.59;100.00;94453.69;5070043;28;20183;-58
2022/06/20 02:01:07;;;;;;;1999.90;999.90;;;;;;;23.56;100.00;94455.47;5069552;28;20189;-57
2022/06/20 02:03:36;;;;;;;1999.90;999.90;;;;;;;23.57;100.00;94461.81;5052878;28;20197;-57
2022/06/20 02:06:02;;;;;;;1999.90;999.90;;;;;;;23.54;100.00;94471.19;5052981;28;20189;-57
2022/06/20 02:08:27;;;;;;;1999.90;999.90;;;;;;;23.53;100.00;94466.91;5069287;28;20236;-58
2022/06/20 02:10:59;;;;;;;1999.90;999.90;;;;;;;23.49;100.00;94471.97;5069547;28;20181;-56
2022/06/20 02:13:27;;;;;;;1999.90;999.90;;;;;;;23.47;100.00;94475.28;5069731;28;20197;-71
2022/06/20 02:15:58;;;;;;;1999.90;999.90;;;;;;;23.34;100.00;94479.84;5052582;28;20197;-58
2022/06/20 02:18:27;;;;;;;1999.90;999.90;;;;;;;23.32;100.00;94479.59;5069909;28;20185;-61
2022/06/20 02:20:56;;;;;;;1999.90;999.90;;;;;;;23.38;100.00;94483.88;5053156;28;20194;-60
2022/06/20 02:23:30;;;;;;;1999.90;999.90;;;;;;;23.43;100.00;94491.50;5069344;28;20196;-61
2022/06/20 02:25:56;;;;;;;1999.90;999.90;;;;;;;23.45;100.00;94486.16;5052813;28;20197;-60
2022/06/20 02:28:30;;;;;;;1999.90;999.90;;;;;;;23.62;100.00;94491.72;5069400;28;20281;-60
2022/06/20 02:30:56;;;;;;;1999.90;999.90;;;;;;;23.68;100.00;94496.03;5069829;28;20189;-61
2022/06/20 02:33:25;;;;;;;1999.90;999.90;;;;;;;23.76;100.00;94496.25;5069457;28;20182;-66
2022/06/20 02:35:53;;;;;;;1999.90;999.90;;;;;;;23.79;100.00;94511.97;5052601;28;20190;-60
2022/06/20 02:38:20;;;;;;;1999.90;999.90;;;;;;;23.83;100.00;94512.47;5052474;28;20217;-60
2022/06/20 02:40:47;;;;;;;1999.90;999.90;;;;;;;23.92;100.00;94512.97;5069243;28;20184;-60
2022/06/20 02:43:18;;;;;;;1999.90;999.90;;;;;;;24.03;100.00;94520.53;5052532;28;20190;-60
2022/06/20 02:45:44;;;;;;;1999.90;999.90;;;;;;;24.11;100.00;94529.94;5069550;28;20189;-61
2022/06/20 02:48:12;;;;;;;1999.90;999.90;;;;;;;24.21;100.00;94533.94;5052101;28;20218;-61
2022/06/20 02:50:44;;;;;;;1999.90;999.90;;;;;;;24.26;100.00;94527.59;5068915;28;20201;-62
2022/06/20 02:53:16;;;;;;;1999.90;999.90;;;;;;;24.26;100.00;94524.81;5052436;28;20194;-61
2022/06/20 02:55:42;;;;;;;1999.90;999.90;;;;;;;24.22;100.00;94535.47;5052306;28;20194;-61
2022/06/20 02:58:18;;;;;;;1999.90;999.90;;;;;;;24.24;100.00;94535.72;5069154;28;20193;-62
2022/06/20 03:00:57;;;;;;;1999.90;999.90;;;;;;;24.24;100.00;94536.47;5070549;28;20189;-61
2022/06/20 03:03:54;;;;;;;1999.90;999.90;;;;;;;24.20;100.00;94541.56;5072880;28;20253;-61
2022/06/20 03:06:31;;;;;;;1999.90;999.90;;;;;;;24.18;100.00;94537.78;5060451;28;20212;-62
2022/06/20 03:08:57;;;;;;;1999.90;999.90;;;;;;;24.15;100.00;94533.22;5072076;28;20209;-75
2022/06/20 03:11:27;;;;;;;1999.90;999.90;;;;;;;24.13;100.00;94530.94;5072281;28;20189;-62
2022/06/20 03:13:55;;;;;;;1999.90;999.90;;;;;;;24.13;100.00;94535.75;5055750;28;20197;-60
2022/06/20 03:16:21;;;;;;;1999.90;999.90;;;;;;;24.10;100.00;94531.19;5072288;28;20185;-62
2022/06/20 03:18:49;;;;;;;1999.90;999.90;;;;;;;24.09;100.00;94533.22;5072160;28;20196;-60
2022/06/20 03:21:21;;;;;;;1999.90;999.90;;;;;;;24.08;100.00;94528.16;5072135;28;20182;-60
2022/06/20 03:23:46;;;;;;;1999.90;999.90;;;;;;;24.08;100.00;94531.69;5072334;28;20186;-60
2022/06/20 03:26:17;;;;;;;1999.90;999.90;;;;;;;24.07;100.00;94538.56;5071781;28;20213;-60
2022/06/20 03:28:43;;;;;;;1999.90;999.90;;;;;;;24.07;100.00;94540.59;5072054;28;20341;-65
2022/06/20 03:31:10;;;;;;;1999.90;999.90;;;;;;;24.06;100.00;94536.28;5071848;28;20328;-61
2022/06/20 03:33:36;;;;;;;1999.90;999.90;;;;;;;24.05;100.00;94534.75;5071487;28;20208;-61
2022/06/20 03:36:10;;;;;;;1999.90;999.90;;;;;;;24.08;100.00;94544.91;5055413;28;20182;-61
2022/06/20 03:38:39;;;;;;;1999.90;999.90;;;;;;;24.14;100.00;94546.41;5071620;28;20213;-60
2022/06/20 03:41:05;;;;;;;1999.90;999.90;;;;;;;24.22;100.00;94547.38;5055140;28;20190;-61
2022/06/20 03:43:33;;;;;;;1999.90;999.90;;;;;;;24.31;100.00;94540.75;5054923;28;20202;-61
2022/06/20 03:46:02;;;;;;;1999.90;999.90;;;;;;;24.39;100.00;94536.16;5071829;28;20274;-60
2022/06/20 03:48:38;;;;;;;1999.90;999.90;;;;;;;24.44;100.00;94538.19;5071634;28;20283;-64
2022/06/20 03:51:08;;;;;;;1999.90;999.90;;;;;;;24.51;100.00;94537.66;5054513;28;20194;-64
2022/06/20 03:53:41;;;;;;;1999.90;999.90;;;;;;;24.65;100.00;94553.34;5054367;28;20216;-64
2022/06/20 03:56:33;;;;;;;1999.90;999.90;;;;;;;24.87;100.00;94553.22;5071469;28;20236;-64
2022/06/20 03:59:05;;;;;;;1999.90;999.90;;;;;;;25.06;100.00;94560.47;5071635;28;20224;-64
2022/06/20 04:01:36;;;;;;;1999.90;999.90;;;;;;;25.25;100.00;94557.81;5055796;28;20284;-64
2022/06/20 04:04:24;;;;;;;1999.90;999.90;;;;;;;25.45;100.00;94556.69;5071191;28;20208;-62
2022/06/20 04:06:59;;;;;;;1999.90;999.90;;;;;;;25.72;100.00;94567.66;5071287;28;20193;-71
2022/06/20 04:12:27;;;;;;;1999.90;999.90;;;;;;;26.39;100.00;94571.31;5055450;28;20200;-72
2022/06/20 04:14:59;;;;;;;1999.90;999.90;;;;;;;26.74;100.00;94590.81;5054244;28;20200;-72
2022/06/20 04:20:22;;;;;;;1999.90;999.90;;;;;;;27.19;97.47;94593.78;5055249;28;20196;-72
2022/06/20 04:22:51;;;;;;;1999.90;999.90;;;;;;;27.54;96.29;94599.91;5071569;28;20189;-60
2022/06/20 04:26:10;;;;;;;1999.90;999.90;;;;;;;27.92;93.93;94600.63;5071051;28;20189;-60
2022/06/20 04:28:52;;;;;;;1999.90;999.90;;;;;;;28.18;93.59;94595.81;5037122;28;20285;-60
2022/06/20 04:31:42;;;;;;;1999.90;999.90;;;;;;;28.49;92.40;94613.16;5070639;28;20185;-60
2022/06/20 04:34:31;;;;;;;1999.90;999.90;;;;;;;28.70;91.29;94611.25;5054559;28;20186;-61
2022/06/20 04:37:22;;;;;;;1999.90;999.90;;;;;;;28.90;88.37;94616.19;5070994;28;20182;-60
2022/06/20 04:40:05;;;;;;;1999.90;999.90;;;;;;;29.00;87.05;94628.53;5054083;28;20216;-60
2022/06/20 04:43:01;;;;;;;1999.90;999.90;;;;;;;29.45;82.85;94641.13;5054452;28;20186;-64
2022/06/20 04:45:37;;;;;;;1999.90;999.90;;;;;;;29.38;82.92;94636.19;5055106;28;20218;-61
2022/06/20 04:48:07;;;;;;;1999.90;999.90;;;;;;;29.18;81.51;94645.31;5070496;28;20205;-60
2022/06/20 04:50:34;;;;;;;1999.90;999.90;;;;;;;29.30;80.23;94649.41;5070871;28;20244;-60
2022/06/20 04:53:08;;;;;;;1999.90;999.90;;;;;;;29.42;78.79;94650.66;5070430;28;20243;-60
2022/06/20 04:55:38;;;;;;;1999.90;999.90;;;;;;;29.98;75.83;94650.97;5070811;28;20185;-61
2022/06/20 04:58:07;;;;;;;1999.90;999.90;;;;;;;30.30;73.41;94650.72;5070380;28;20175;-59
2022/06/20 05:00:40;;;;;;;1999.90;999.90;;;;;;;30.88;71.09;94665.09;5053753;28;20193;-76
2022/06/20 05:03:08;;;;;;;1999.90;999.90;;;;;;;31.06;68.61;94669.72;5054279;28;20190;-75
2022/06/20 05:05:43;;;;;;;1999.90;999.90;;;;;;;31.05;67.72;94673.84;5053266;28;20188;-73
2022/06/20 05:08:12;;;;;;;1999.90;999.90;;;;;;;31.31;66.59;94675.72;5053661;28;20205;-75
2022/06/20 05:11:04;;;;;;;1999.90;999.90;;;;;;;31.85;64.81;94676.16;5053409;28;20272;-74
2022/06/20 05:13:44;;;;;;;1999.90;999.90;;;;;;;32.29;60.13;94685.28;5041049;28;20210;-74
2022/06/20 05:16:17;;;;;;;1999.90;999.90;;;;;;;32.27;59.67;94683.06;5070039;28;20181;-73
2022/06/20 05:18:46;;;;;;;1999.90;999.90;;;;;;;31.74;61.14;94687.78;5070814;28;20189;-58
2022/06/20 05:21:14;;;;;;;1999.90;999.90;;;;;;;31.32;63.78;94692.13;5053275;28;20189;-59
2022/06/20 05:23:44;;;;;;;1999.90;999.90;;;;;;;30.74;64.84;94689.81;5069252;28;20194;-58
2022/06/20 05:26:21;;;;;;;1999.90;999.90;;;;;;;30.07;67.89;94684.28;5070300;28;20197;-53
2022/06/20 05:28:49;;;;;;;1999.90;999.90;;;;;;;30.11;68.85;94695.19;5053096;28;20205;-57
2022/06/20 05:31:25;;;;;;;1999.90;999.90;;;;;;;30.41;68.71;94699.09;5052964;28;20322;-58
2022/06/20 05:34:10;;;;;;;1999.90;999.90;;;;;;;30.85;67.49;94694.44;5069417;28;20313;-59
2022/06/20 05:36:41;;;;;;;1999.90;999.90;;;;;;;31.03;63.90;94704.72;5070510;28;20186;-62
2022/06/20 05:39:23;;;;;;;1999.90;999.90;;;;;;;31.81;60.47;94709.69;5070019;28;20225;-59
2022/06/20 05:41:50;;;;;;;1999.90;999.90;;;;;;;32.82;56.69;94731.41;5069937;28;20200;-59
2022/06/20 05:44:15;;;;;;;1999.90;999.90;;;;;;;32.53;54.26;94732.88;5053077;28;20182;-59
2022/06/20 05:46:50;;;;;;;1999.90;999.90;;;;;;;31.95;56.00;94724.44;5070142;28;20173;-59
2022/06/20 05:49:25;;;;;;;1999.90;999.90;;;;;;;31.74;56.39;94726.56;5069539;28;20206;-59
2022/06/20 05:51:51;;;;;;;1999.90;999.90;;;;;;;31.80;55.62;94733.63;5069933;28;20185;-59
2022/06/20 05:54:22;;;;;;;1999.90;999.90;;;;;;;32.77;52.08;94752.91;5069179;28;20182;-65
2022/06/20 05:56:54;;;;;;;1999.90;999.90;;;;;;;33.23;50.89;94748.78;5069315;28;20182;-60
2022/06/20 05:59:26;;;;;;;1999.90;999.90;;;;;;;33.25;50.68;94756.72;5053254;28;20186;-59
2022/06/20 06:01:55;;;;;;;1999.90;999.90;;;;;;;34.38;47.57;94768.50;5069242;28;20247;-58
2022/06/20 06:04:33;;;;;;;1999.90;999.90;;;;;;;34.32;46.96;94764.34;5053865;28;20185;-59
2022/06/20 06:07:13;;;;;;;1999.90;999.90;;;;;;;33.47;48.95;94767.28;5053084;28;20189;-55
2022/06/20 06:09:48;;;;;;;1999.90;999.90;;;;;;;32.07;51.40;94771.56;5069975;28;20198;-58
2022/06/20 06:12:23;;;;;;;1999.90;999.90;;;;;;;31.27;55.32;94788.25;5069312;28;20181;-58
2022/06/20 06:14:59;;;;;;;1999.90;999.90;;;;;;;30.72;57.47;94779.13;5052693;28;20208;-62
2022/06/20 06:17:33;;;;;;;1999.90;999.90;;;;;;;30.42;59.92;94787.25;5069986;28;20189;-70
2022/06/20 06:20:02;;;;;;;1999.90;999.90;;;;;;;29.83;62.13;94788.06;5052514;28;20314;-69
2022/06/20 06:22:32;;;;;;;1999.90;999.90;;;;;;;30.19;62.80;94794.72;5053081;28;20178;-69
2022/06/20 06:25:10;;;;;;;1999.90;999.90;;;;;;;30.61;60.85;94793.47;5069288;28;20186;-68
2022/06/20 06:27:36;;;;;;;1999.90;999.90;;;;;;;31.24;60.00;94804.19;5069750;28;20338;-72
2022/06/20 06:30:13;;;;;;;1999.90;999.90;;;;;;;32.05;56.88;94802.50;5069334;28;20245;-71
2022/06/20 06:32:38;;;;;;;1999.90;999.90;;;;;;;32.28;54.95;94797.66;5053205;28;20178;-60
2022/06/20 06:35:07;;;;;;;1999.90;999.90;;;;;;;31.75;54.99;94812.84;5067859;28;20182;-60
2022/06/20 06:37:55;;;;;;;1999.90;999.90;;;;;;;31.52;56.96;94815.53;5069999;28;20193;-60
2022/06/20 06:40:35;;;;;;;1999.90;999.90;;;;;;;31.20;58.32;94825.63;5069598;28;20273;-61
2022/06/20 06:43:14;;;;;;;1999.90;999.90;;;;;;;30.97;59.52;94819.78;5069167;28;20186;-61
2022/06/20 06:45:39;;;;;;;1999.90;999.90;;;;;;;30.86;61.59;94825.72;5052744;28;20178;-61
2022/06/20 06:48:19;;;;;;;1999.90;999.90;;;;;;;30.81;61.54;94818.16;5069144;28;20206;-62
2022/06/20 06:50:53;;;;;;;1999.90;999.90;;;;;;;30.80;61.09;94822.25;5053024;28;20196;-58
2022/06/20 06:53:40;;;;;;;1999.90;999.90;;;;;;;31.36;60.41;94842.16;5069602;28;20189;-63
2022/06/20 06:56:11;;;;;;;1999.90;999.90;;;;;;;31.50;60.21;94849.22;5069437;28;20212;-63
2022/06/20 06:58:47;;;;;;;1999.90;999.90;;;;;;;31.41;61.09;94852.53;5069052;28;20224;-62
2022/06/20 07:01:37;;;;;;;1999.90;999.90;;;;;;;32.20;56.83;94853.44;5069283;28;20189;-62
2022/06/20 07:04:13;;;;;;;1999.90;999.90;;;;;;;32.22;56.55;94852.88;5052398;28;20185;-61
2022/06/20 07:07:13;;;;;;;1999.90;999.90;;;;;;;31.45;58.42;94863.47;5052804;28;20203;-61
2022/06/20 07:09:50;;;;;;;1999.90;999.90;;;;;;;32.76;55.25;94852.50;5068973;28;20244;-60
2022/06/20 07:12:37;;;;;;;1999.90;999.90;;;;;;;33.38;52.36;94855.66;5052661;28;20276;-57
2022/06/20 07:15:08;;;;;;;1999.90;999.90;;;;;;;32.73;52.29;94857.22;5068905;28;20181;-57
2022/06/20 07:17:45;;;;;;;1999.90;999.90;;;;;;;32.15;53.69;94871.31;5068214;28;20216;-57
2022/06/20 07:20:11;;;;;;;1999.90;999.90;;;;;;;31.96;54.32;94872.91;5069508;28;20263;-56
2022/06/20 07:22:40;;;;;;;1999.90;999.90;;;;;;;31.73;55.55;94869.91;5052491;28;20189;-58
2022/06/20 07:25:06;;;;;;;1999.90;999.90;;;;;;;31.33;57.04;94871.50;5051801;28;20189;-61
2022/06/20 07:27:47;;;;;;;1999.90;999.90;;;;;;;31.77;56.03;94873.16;5068611;28;20285;-58
2022/06/20 07:30:20;;;;;;;1999.90;999.90;;;;;;;32.06;53.27;94865.41;5051869;28;20185;-57
2022/06/20 07:32:51;;;;;;;1999.90;999.90;;;;;;;32.00;54.81;94867.63;5068523;28;20182;-58
2022/06/20 07:35:21;;;;;;;1999.90;999.90;;;;;;;34.22;48.73;94871.25;5068573;28;20178;-57
2022/06/20 07:37:57;;;;;;;1999.90;999.90;;;;;;;35.34;45.04;94872.81;5068697;28;20205;-57
2022/06/20 07:40:33;;;;;;;1999.90;999.90;;;;;;;35.18;44.56;94885.59;5052524;28;20181;-57
2022/06/20 07:43:05;;;;;;;1999.90;999.90;;;;;;;35.65;44.25;94874.06;5068949;28;20189;-55
2022/06/20 07:45:46;;;;;;;1999.90;999.90;;;;;;;36.63;41.48;94879.50;5068823;28;20340;-58
2022/06/20 07:48:18;;;;;;;1999.90;999.90;;;;;;;36.84;41.37;94871.28;5072106;28;20229;-60
2022/06/20 07:50:47;;;;;;;1999.90;999.90;;;;;;;37.02;39.18;94881.31;5072127;28;20182;-62
2022/06/20 07:53:25;;;;;;;1999.90;999.90;;;;;;;37.26;38.35;94874.72;5071730;28;20178;-62
2022/06/20 07:55:57;;;;;;;1999.90;999.90;;;;;;;36.93;39.69;94895.50;5071459;28;20242;-62
2022/06/20 07:58:30;;;;;;;1999.90;999.90;;;;;;;36.64;40.76;94892.44;5071597;28;20193;-61
2022/06/20 08:01:00;;;;;;;1999.90;999.90;;;;;;;35.67;43.19;94888.44;5071724;28;20189;-61
2022/06/20 08:03:28;;;;;;;1999.90;999.90;;;;;;;35.55;44.76;94885.34;5055242;28;20186;-60
2022/06/20 08:05:59;;;;;;;1999.90;999.90;;;;;;;34.90;47.16;94885.94;5071979;28;20185;-62
2022/06/20 08:08:31;;;;;;;1999.90;999.90;;;;;;;34.30;47.21;94898.25;5071929;28;20205;-63
2022/06/20 08:11:02;;;;;;;1999.90;999.90;;;;;;;33.77;47.56;94892.69;5071547;28;20208;-62
2022/06/20 08:13:48;;;;;;;1999.90;999.90;;;;;;;33.56;49.32;94900.63;5055047;28;20228;-62
2022/06/20 08:16:24;;;;;;;1999.90;999.90;;;;;;;33.56;49.18;94897.78;5071913;28;20170;-61
2022/06/20 08:18:51;;;;;;;1999.90;999.90;;;;;;;33.15;49.63;94900.94;5071822;28;20190;-61
2022/06/20 08:21:28;;;;;;;1999.90;999.90;;;;;;;32.46;50.39;94897.69;5055194;28;20192;-60
2022/06/20 08:24:00;;;;;;;1999.90;999.90;;;;;;;32.80;51.58;94904.59;5071799;28;20193;-61
2022/06/20 08:26:33;;;;;;;1999.90;999.90;;;;;;;32.26;49.43;94907.00;5071395;28;20189;-61
2022/06/20 08:29:03;;;;;;;1999.90;999.90;;;;;;;31.89;49.12;94913.94;5054658;28;20270;-60
2022/06/20 08:31:35;;;;;;;1999.90;999.90;;;;;;;31.97;50.04;94908.34;5071153;28;20193;-61
2022/06/20 08:34:09;;;;;;;1999.90;999.90;;;;;;;32.22;48.63;94913.00;5054649;28;20186;-62
2022/06/20 08:36:45;;;;;;;1999.90;999.90;;;;;;;32.35;49.03;94918.59;5055784;28;20181;-62
2022/06/20 08:39:40;;;;;;;1999.90;999.90;;;;;;;32.64;46.94;94919.25;5070766;28;20202;-58
2022/06/20 08:42:05;;;;;;;1999.90;999.90;;;;;;;32.73;46.07;94911.00;5071561;28;20272;-63
2022/06/20 08:44:31;;;;;;;1999.90;999.90;;;;;;;33.00;45.82;94917.88;5071051;28;20231;-60
2022/06/20 08:47:06;;;;;;;1999.90;999.90;;;;;;;32.78;44.78;94915.72;5070820;28;20192;-60
2022/06/20 08:50:03;;;;;;;1999.90;999.90;;;;;;;32.64;44.74;94924.91;5070953;28;20228;-59
2022/06/20 08:52:59;;;;;;;1999.90;999.90;;;;;;;32.71;45.72;94924.97;5054144;28;20194;-59
2022/06/20 08:55:33;;;;;;;1999.90;999.90;;;;;;;33.04;43.85;94926.78;5070600;28;20194;-60
2022/06/20 08:58:16;;;;;;;1999.90;999.90;;;;;;;34.06;42.34;94935.00;5069604;28;20200;-58
2022/06/20 09:00:54;;;;;;;1999.90;999.90;;;;;;;33.99;42.90;94935.75;5071355;28;20251;-58
2022/06/20 09:03:45;;;;;;;1999.90;999.90;;;;;;;34.01;42.42;94931.03;5071107;28;20193;-58
2022/06/20 09:06:25;;;;;;;1999.90;999.90;;;;;;;34.61;41.21;94927.31;5071070;28;20185;-58
2022/06/20 09:09:18;;;;;;;1999.90;999.90;;;;;;;35.40;39.37;94933.00;5071029;28;20201;-59
2022/06/20 09:12:02;;;;;;;1999.90;999.90;;;;;;;36.03;38.83;94932.16;5070448;28;20194;-58
2022/06/20 09:14:55;;;;;;;1999.90;999.90;;;;;;;36.87;36.66;94921.41;5070733;28;20189;-59
2022/06/20 09:17:31;;;;;;;1999.90;999.90;;;;;;;37.40;35.13;94927.16;5070499;28;20192;-57
2022/06/20 09:20:14;;;;;;;1999.90;999.90;;;;;;;37.34;34.93;94932.38;5070708;28;20178;-60
2022/06/20 09:22:47;;;;;;;1999.90;999.90;;;;;;;37.01;35.29;94931.09;5070448;28;20182;-59
2022/06/20 09:25:33;;;;;;;1999.90;999.90;;;;;;;36.35;35.02;94925.59;5070615;28;20197;-59
2022/06/20 09:28:32;;;;;;;1999.90;999.90;;;;;;;36.35;35.34;94925.59;5070441;28;20206;-59
2022/06/20 09:31:29;;;;;;;1999.90;999.90;;;;;;;36.07;36.68;94923.19;5070634;28;20189;-58
2022/06/20 09:34:03;;;;;;;1999.90;999.90;;;;;;;35.69;37.15;94917.06;5070527;28;20181;-63
2022/06/20 09:37:00;;;;;;;1999.90;999.90;;;;;;;35.48;37.50;94910.97;5070182;28;20189;-69
2022/06/20 09:39:40;;;;;;;1999.90;999.90;;;;;;;35.42;37.53;94916.13;5069909;28;20206;-60
2022/06/20 09:42:26;;;;;;;1999.90;999.90;;;;;;;35.85;37.16;94904.25;5070121;28;20295;-61
2022/06/20 09:45:03;;;;;;;1999.90;999.90;;;;;;;35.82;36.61;94917.53;5054334;28;20196;-61
2022/06/20 09:47:44;;;;;;;1999.90;999.90;;;;;;;35.31;37.70;94922.25;5069937;28;20196;-61
2022/06/20 09:50:24;;;;;;;1999.90;999.90;;;;;;;35.31;37.84;94913.75;5070412;28;20190;-61
2022/06/20 09:53:06;;;;;;;1999.90;999.90;;;;;;;35.29;38.01;94910.72;5070082;28;20190;-62
2022/06/20 09:55:46;;;;;;;1999.90;999.90;;;;;;;36.29;35.99;94919.38;5069636;28;20206;-61
2022/06/20 09:58:15;;;;;;;1999.90;999.90;;;;;;;36.62;35.89;94917.88;5070021;28;20226;-64
2022/06/20 10:00:41;;;;;;;1999.90;999.90;;;;;;;36.36;37.33;94924.25;5069707;28;20185;-61
2022/06/20 10:03:26;;;;;;;1999.90;999.90;;;;;;;35.88;37.20;94920.91;5069643;28;20197;-61
2022/06/20 10:06:06;;;;;;;1999.90;999.90;;;;;;;35.57;37.49;94918.84;5069546;28;20186;-62
2022/06/20 10:08:31;;;;;;;1999.90;999.90;;;;;;;35.75;36.45;94923.25;5069724;28;20347;-62
2022/06/20 10:11:02;;;;;;;1999.90;999.90;;;;;;;35.74;36.42;94916.84;5069903;28;20201;-60
2022/06/20 10:13:42;;;;;;;1999.90;999.90;;;;;;;35.45;36.97;94917.81;5069544;28;20190;-64
2022/06/20 10:16:34;;;;;;;1999.90;999.90;;;;;;;35.40;36.49;94915.97;5069405;28;20189;-61
2022/06/20 10:19:20;;;;;;;1999.90;999.90;;;;;;;34.56;37.24;94914.09;5069837;28;20196;-59
2022/06/20 10:22:01;;;;;;;1999.90;999.90;;;;;;;34.01;37.89;94916.09;5069234;28;20192;-61
2022/06/20 10:24:48;;;;;;;1999.90;999.90;;;;;;;33.69;38.35;94908.91;5069822;28;20196;-59
2022/06/20 10:27:26;;;;;;;1999.90;999.90;;;;;;;33.98;38.57;94911.56;5069300;28;20214;-61
2022/06/20 10:29:54;;;;;;;1999.90;999.90;;;;;;;34.24;38.50;94911.13;5069447;28;20209;-69
2022/06/20 10:32:27;;;;;;;1999.90;999.90;;;;;;;34.10;39.43;94909.84;5069134;28;20189;-58
2022/06/20 10:35:18;;;;;;;1999.90;999.90;;;;;;;34.17;40.55;94906.22;5069842;28;20188;-60
2022/06/20 10:38:08;;;;;;;1999.90;999.90;;;;;;;33.87;39.83;94906.28;5051972;28;20194;-60
2022/06/20 10:40:49;;;;;;;1999.90;999.90;;;;;;;33.64;39.80;94897.78;5053459;28;20231;-61
2022/06/20 10:43:26;;;;;;;1999.90;999.90;;;;;;;33.21;41.84;94903.59;5052606;28;20188;-61
2022/06/20 10:46:20;;;;;;;1999.90;999.90;;;;;;;34.61;38.42;94898.94;5053527;28;20188;-62
2022/06/20 10:49:27;;;;;;;1999.90;999.90;;;;;;;36.52;35.16;94894.25;5050523;28;20235;-73
2022/06/20 10:51:56;;;;;;;1999.90;999.90;;;;;;;37.60;34.93;94891.66;5051800;28;20201;-62
2022/06/20 10:54:52;;;;;;;1999.90;999.90;;;;;;;38.36;32.85;94894.75;5068712;28;20193;-61
2022/06/20 10:57:35;;;;;;;1999.90;999.90;;;;;;;38.49;33.01;94885.75;5068935;28;20182;-64
2022/06/20 11:00:12;;;;;;;1999.90;999.90;;;;;;;37.99;33.28;94890.47;5069098;28;20251;-63
2022/06/20 11:02:44;;;;;;;1999.90;999.90;;;;;;;38.32;31.64;94883.03;5069085;28;20192;-62
2022/06/20 11:05:30;;;;;;;1999.90;999.90;;;;;;;39.33;30.95;94877.66;5068163;28;20189;-64
2022/06/20 11:08:33;;;;;;;1999.90;999.90;;;;;;;39.59;30.72;94878.81;5068642;28;20186;-60
2022/06/20 11:11:23;;;;;;;1999.90;999.90;;;;;;;38.90;30.67;94880.91;5069185;28;20177;-65
2022/06/20 11:14:02;;;;;;;1999.90;999.90;;;;;;;38.20;30.68;94882.09;5068643;28;20265;-64
2022/06/20 11:16:50;;;;;;;1999.90;999.90;;;;;;;38.32;29.87;94887.97;5068712;28;20182;-64
2022/06/20 11:19:36;;;;;;;1999.90;999.90;;;;;;;38.57;28.93;94874.94;5053038;28;20227;-65
2022/06/20 11:22:34;;;;;;;1999.90;999.90;;;;;;;38.84;29.17;94875.50;5070790;28;20189;-64
2022/06/20 11:25:14;;;;;;;1999.90;999.90;;;;;;;38.94;28.79;94873.41;5055484;28;20192;-59
2022/06/20 11:28:14;;;;;;;1999.90;999.90;;;;;;;38.79;29.66;94873.72;5072678;28;20182;-64
2022/06/20 11:30:52;;;;;;;1999.90;999.90;;;;;;;37.92;29.45;94868.50;5071613;28;20190;-65
2022/06/20 11:33:22;;;;;;;1999.90;999.90;;;;;;;38.59;29.51;94866.50;5072239;28;20186;-64
2022/06/20 11:36:06;;;;;;;1999.90;999.90;;;;;;;37.90;29.80;94862.63;5072427;28;20181;-63
2022/06/20 11:38:44;;;;;;;1999.90;999.90;;;;;;;37.79;29.70;94859.63;5055952;28;20213;-64
2022/06/20 11:41:15;;;;;;;1999.90;999.90;;;;;;;37.87;30.09;94866.69;5072299;28;20216;-65